Time,TemperatureF,DewpointF,PressureIn,WindDirection,WindDirectionDegrees,WindSpeedMPH,WindSpeedGustMPH,Humidity,HourlyPrecipIn,Conditions,Clouds,dailyrainin,SoftwareType,DateUTC
2013-02-02 00:03:00,21.8,7.0,30.37,WNW,302,3.0,7.0,53,0.00,,,0.01,weatherlink.com 1.10,2013-02-02 05:03:00,
2013-02-02 00:18:00,21.7,7.0,30.38,West,279,2.0,6.0,53,0.00,,,0.00,weatherlink.com 1.10,2013-02-02 05:18:00,
2013-02-02 00:33:00,21.6,7.0,30.38,SW,236,3.0,6.0,54,0.00,,,0.00,weatherlink.com 1.10,2013-02-02 05:33:00,
2013-02-02 00:48:00,21.4,7.0,30.38,WSW,255,3.0,7.0,54,0.00,,,0.00,weatherlink.com 1.10,2013-02-02 05:48:00,
2013-02-02 01:03:00,21.2,6.0,30.38,NW,314,1.0,9.0,52,0.00,,,0.00,weatherlink.com 1.10,2013-02-02 06:03:00,
2013-02-02 01:19:00,21.1,7.0,30.39,SSW,198,1.0,7.0,54,0.00,,,0.00,weatherlink.com 1.10,2013-02-02 06:19:00,
2013-02-02 01:35:00,21.0,7.0,30.40,West,279,2.0,9.0,54,0.00,,,0.00,weatherlink.com 1.10,2013-02-02 06:35:00,
2013-02-02 01:49:00,20.8,7.0,30.39,ESE,114,2.0,5.0,56,0.00,,,0.00,weatherlink.com 1.10,2013-02-02 06:49:00,
2013-02-02 02:04:00,20.6,7.0,30.38,WNW,297,1.0,5.0,57,0.00,,,0.00,weatherlink.com 1.10,2013-02-02 07:04:00,
2013-02-02 02:19:00,20.5,7.0,30.38,NW,310,5.0,6.0,55,0.00,,,0.00,weatherlink.com 1.10,2013-02-02 07:19:00,
2013-02-02 02:34:00,20.3,7.0,30.38,WNW,290,1.0,5.0,56,0.00,,,0.00,weatherlink.com 1.10,2013-02-02 07:34:00,
2013-02-02 02:49:00,20.3,7.0,30.38,WNW,287,5.0,7.0,56,0.00,,,0.00,weatherlink.com 1.10,2013-02-02 07:49:00,
2013-02-02 03:20:00,20.0,7.0,30.37,West,277,1.0,4.0,58,0.00,,,0.00,weatherlink.com 1.10,2013-02-02 08:20:00,
2013-02-02 03:35:00,20.0,8.0,30.37,North,360,0.0,3.0,60,0.00,,,0.00,weatherlink.com 1.10,2013-02-02 08:35:00,
2013-02-02 03:50:00,20.1,8.0,30.37,WNW,292,1.0,4.0,59,0.00,,,0.00,weatherlink.com 1.10,2013-02-02 08:50:00,
2013-02-02 04:05:00,20.1,8.0,30.36,WNW,286,1.0,5.0,60,0.00,,,0.00,weatherlink.com 1.10,2013-02-02 09:05:00,
2013-02-02 04:20:00,20.0,7.0,30.36,WNW,298,4.0,5.0,58,0.00,,,0.00,weatherlink.com 1.10,2013-02-02 09:20:00,
2013-02-02 04:35:00,20.0,8.0,30.36,West,272,1.0,4.0,59,0.00,,,0.00,weatherlink.com 1.10,2013-02-02 09:35:00,
2013-02-02 04:51:00,20.0,7.0,30.36,NW,323,1.0,6.0,58,0.00,,,0.00,weatherlink.com 1.10,2013-02-02 09:51:00,
2013-02-02 05:05:00,20.0,8.0,30.36,West,279,0.0,4.0,60,0.00,,,0.00,weatherlink.com 1.10,2013-02-02 10:05:00,
2013-02-02 05:20:00,20.1,8.0,30.36,NW,309,1.0,6.0,60,0.00,,,0.00,weatherlink.com 1.10,2013-02-02 10:20:00,
2013-02-02 05:35:00,20.1,9.0,30.37,NW,313,1.0,4.0,61,0.00,,,0.00,weatherlink.com 1.10,2013-02-02 10:35:00,
2013-02-02 05:51:00,20.2,9.0,30.37,WNW,292,0.0,4.0,61,0.00,,,0.00,weatherlink.com 1.10,2013-02-02 10:51:00,
2013-02-02 06:06:00,20.3,8.0,30.37,West,261,1.0,6.0,59,0.00,,,0.00,weatherlink.com 1.10,2013-02-02 11:06:00,
2013-02-02 06:21:00,20.3,8.0,30.37,West,276,4.0,4.0,58,0.00,,,0.00,weatherlink.com 1.10,2013-02-02 11:21:00,
2013-02-02 06:36:00,20.2,7.0,30.37,West,276,2.0,3.0,57,0.00,,,0.00,weatherlink.com 1.10,2013-02-02 11:36:00,
2013-02-02 06:51:00,20.1,8.0,30.37,NNW,331,0.0,3.0,60,0.00,,,0.00,weatherlink.com 1.10,2013-02-02 11:51:00,
2013-02-02 07:06:00,19.9,8.0,30.37,WSW,257,0.0,4.0,60,0.00,,,0.00,weatherlink.com 1.10,2013-02-02 12:06:00,
2013-02-02 07:21:00,19.9,8.0,30.37,SW,226,0.0,1.0,59,0.00,,,0.00,weatherlink.com 1.10,2013-02-02 12:21:00,
2013-02-02 07:36:00,20.0,8.0,30.38,West,265,0.0,2.0,61,0.00,,,0.00,weatherlink.com 1.10,2013-02-02 12:36:00,
2013-02-02 07:51:00,20.2,9.0,30.38,WNW,282,1.0,2.0,61,0.00,,,0.00,weatherlink.com 1.10,2013-02-02 12:51:00,
2013-02-02 08:06:00,20.7,8.0,30.38,SSW,213,0.0,1.0,59,0.00,,,0.00,weatherlink.com 1.10,2013-02-02 13:06:00,
2013-02-02 08:21:00,21.1,9.0,30.38,South,184,0.0,2.0,59,0.00,,,0.00,weatherlink.com 1.10,2013-02-02 13:21:00,
2013-02-02 08:37:00,21.8,9.0,30.38,South,169,0.0,4.0,59,0.00,,,0.00,weatherlink.com 1.10,2013-02-02 13:37:00,
2013-02-02 08:52:00,22.7,9.0,30.37,SSW,212,2.0,3.0,57,0.00,,,0.00,weatherlink.com 1.10,2013-02-02 13:52:00,
2013-02-02 09:07:00,23.4,9.0,30.36,SSW,201,2.0,4.0,54,0.00,,,0.00,weatherlink.com 1.10,2013-02-02 14:07:00,
2013-02-02 09:22:00,23.7,8.0,30.35,SSW,197,2.0,7.0,51,0.00,,,0.00,weatherlink.com 1.10,2013-02-02 14:22:00,
2013-02-02 09:37:00,23.7,8.0,30.35,SSW,192,2.0,5.0,52,0.00,,,0.00,weatherlink.com 1.10,2013-02-02 14:37:00,
2013-02-02 09:52:00,24.7,7.0,30.35,SSW,194,2.0,5.0,48,0.00,,,0.00,weatherlink.com 1.10,2013-02-02 14:52:00,
2013-02-02 10:07:00,25.4,9.0,30.34,SSW,195,2.0,5.0,49,0.00,,,0.00,weatherlink.com 1.10,2013-02-02 15:07:00,
2013-02-02 10:22:00,25.7,9.0,30.34,ESE,122,2.0,5.0,49,0.00,,,0.00,weatherlink.com 1.10,2013-02-02 15:22:00,
2013-02-02 10:37:00,25.9,9.0,30.34,SSE,165,5.0,7.0,50,0.00,,,0.00,weatherlink.com 1.10,2013-02-02 15:37:00,
2013-02-02 10:53:00,25.8,11.0,30.34,South,174,3.0,6.0,53,0.00,,,0.00,weatherlink.com 1.10,2013-02-02 15:53:00,
2013-02-02 11:08:00,25.8,11.0,30.33,SSW,195,4.0,9.0,54,0.00,,,0.00,weatherlink.com 1.10,2013-02-02 16:08:00,
2013-02-02 11:23:00,26.9,11.0,30.32,SSW,202,2.0,7.0,52,0.00,,,0.00,weatherlink.com 1.10,2013-02-02 16:23:00,
2013-02-02 11:38:00,27.2,11.0,30.31,South,169,6.0,8.0,51,0.00,,,0.00,weatherlink.com 1.10,2013-02-02 16:38:00,
2013-02-02 11:53:00,27.7,13.0,30.29,SE,146,4.0,9.0,54,0.00,,,0.00,weatherlink.com 1.10,2013-02-02 16:53:00,
2013-02-02 12:08:00,28.4,14.0,30.27,SSE,161,1.0,8.0,55,0.00,,,0.00,weatherlink.com 1.10,2013-02-02 17:08:00,
2013-02-02 12:23:00,28.8,14.0,30.27,SSW,209,3.0,9.0,54,0.00,,,0.00,weatherlink.com 1.10,2013-02-02 17:23:00,
2013-02-02 12:38:00,29.3,14.0,30.26,South,182,2.0,8.0,54,0.00,,,0.00,weatherlink.com 1.10,2013-02-02 17:38:00,
2013-02-02 12:53:00,29.1,14.0,30.25,SSW,203,7.0,9.0,54,0.00,,,0.00,weatherlink.com 1.10,2013-02-02 17:53:00,
2013-02-02 13:08:00,29.4,14.0,30.23,SSE,167,2.0,6.0,54,0.00,,,0.00,weatherlink.com 1.10,2013-02-02 18:08:00,
2013-02-02 13:23:00,29.7,14.0,30.22,South,169,1.0,6.0,53,0.00,,,0.00,weatherlink.com 1.10,2013-02-02 18:23:00,
2013-02-02 13:39:00,30.3,15.0,30.21,South,169,3.0,8.0,53,0.00,,,0.00,weatherlink.com 1.10,2013-02-02 18:39:00,
2013-02-02 13:54:00,30.6,12.0,30.21,SSW,209,2.0,9.0,47,0.00,,,0.00,weatherlink.com 1.10,2013-02-02 18:54:00,
2013-02-02 14:09:00,30.8,13.0,30.20,SW,215,5.0,7.0,47,0.00,,,0.00,weatherlink.com 1.10,2013-02-02 19:09:00,
2013-02-02 14:24:00,30.6,12.0,30.19,South,186,3.0,8.0,46,0.00,,,0.00,weatherlink.com 1.10,2013-02-02 19:24:00,
2013-02-02 14:39:00,30.6,12.0,30.18,South,169,4.0,7.0,46,0.00,,,0.00,weatherlink.com 1.10,2013-02-02 19:39:00,
2013-02-02 14:54:00,30.7,12.0,30.18,SSE,161,2.0,8.0,46,0.00,,,0.00,weatherlink.com 1.10,2013-02-02 19:54:00,
2013-02-02 15:09:00,30.8,12.0,30.18,South,177,2.0,6.0,45,0.00,,,0.00,weatherlink.com 1.10,2013-02-02 20:09:00,
2013-02-02 15:24:00,30.7,13.0,30.17,South,184,4.0,7.0,48,0.00,,,0.00,weatherlink.com 1.10,2013-02-02 20:24:00,
2013-02-02 15:39:00,30.9,15.0,30.16,South,190,1.0,7.0,51,0.00,,,0.00,weatherlink.com 1.10,2013-02-02 20:39:00,
2013-02-02 15:54:00,30.7,17.0,30.16,SE,144,2.0,3.0,56,0.00,,,0.00,weatherlink.com 1.10,2013-02-02 20:54:00,
2013-02-02 16:09:00,30.9,16.0,30.14,SSE,155,0.0,3.0,54,0.00,,,0.00,weatherlink.com 1.10,2013-02-02 21:09:00,
2013-02-02 16:24:00,31.2,16.0,30.14,SE,136,1.0,2.0,53,0.00,,,0.00,weatherlink.com 1.10,2013-02-02 21:24:00,
2013-02-02 16:39:00,31.1,15.0,30.14,South,187,0.0,4.0,51,0.00,,,0.00,weatherlink.com 1.10,2013-02-02 21:39:00,
2013-02-02 16:54:00,31.2,14.0,30.14,South,180,4.0,7.0,50,0.00,,,0.00,weatherlink.com 1.10,2013-02-02 21:54:00,
2013-02-02 17:09:00,31.4,14.0,30.13,South,175,2.0,6.0,49,0.00,,,0.00,weatherlink.com 1.10,2013-02-02 22:09:00,
2013-02-02 17:24:00,31.4,14.0,30.13,South,175,0.0,9.0,48,0.00,,,0.00,weatherlink.com 1.10,2013-02-02 22:24:00,
2013-02-02 17:39:00,31.2,14.0,30.11,South,184,4.0,8.0,50,0.00,,,0.00,weatherlink.com 1.10,2013-02-02 22:39:00,
2013-02-02 17:54:00,30.8,18.0,30.10,SSE,165,2.0,7.0,59,0.00,,,0.00,weatherlink.com 1.10,2013-02-02 22:54:00,
2013-02-02 18:09:00,30.5,19.0,30.10,South,180,3.0,10.0,62,0.00,,,0.00,weatherlink.com 1.10,2013-02-02 23:09:00,
2013-02-02 18:24:00,30.0,21.0,30.10,South,188,4.0,9.0,69,0.00,,,0.00,weatherlink.com 1.10,2013-02-02 23:24:00,
2013-02-02 18:39:00,28.9,23.0,30.10,South,180,3.0,13.0,79,0.00,,,0.00,weatherlink.com 1.10,2013-02-02 23:39:00,
2013-02-02 18:54:00,27.9,24.0,30.11,South,188,2.0,8.0,85,0.00,,,0.00,weatherlink.com 1.10,2013-02-02 23:54:00,
2013-02-02 19:09:00,27.5,24.0,30.11,South,177,2.0,7.0,88,0.00,,,0.00,weatherlink.com 1.10,2013-02-03 00:09:00,
2013-02-02 19:24:00,27.4,25.0,30.11,South,169,1.0,5.0,89,0.00,,,0.00,weatherlink.com 1.10,2013-02-03 00:24:00,
2013-02-02 19:39:00,27.9,25.0,30.11,SE,145,2.0,7.0,89,0.00,,,0.00,weatherlink.com 1.10,2013-02-03 00:39:00,
2013-02-02 19:55:00,28.2,26.0,30.11,South,191,5.0,7.0,90,0.00,,,0.00,weatherlink.com 1.10,2013-02-03 00:55:00,
2013-02-02 20:10:00,28.4,26.0,30.11,South,169,1.0,6.0,90,0.00,,,0.00,weatherlink.com 1.10,2013-02-03 01:10:00,
2013-02-02 20:25:00,28.4,26.0,30.10,South,186,3.0,6.0,90,0.00,,,0.00,weatherlink.com 1.10,2013-02-03 01:25:00,
2013-02-02 20:40:00,28.4,26.0,30.10,South,174,3.0,6.0,89,0.00,,,0.00,weatherlink.com 1.10,2013-02-03 01:40:00,
2013-02-02 20:55:00,28.6,26.0,30.09,SSE,165,3.0,5.0,89,0.00,,,0.00,weatherlink.com 1.10,2013-02-03 01:55:00,
2013-02-02 21:10:00,28.7,26.0,30.08,SSW,192,2.0,5.0,89,0.00,,,0.00,weatherlink.com 1.10,2013-02-03 02:10:00,
2013-02-02 21:25:00,28.8,26.0,30.07,SSW,201,0.0,3.0,89,0.00,,,0.00,weatherlink.com 1.10,2013-02-03 02:25:00,
2013-02-02 21:40:00,28.9,26.0,30.06,SSW,206,0.0,3.0,90,0.00,,,0.00,weatherlink.com 1.10,2013-02-03 02:40:00,
2013-02-02 21:55:00,28.9,26.0,30.05,SSW,195,0.0,4.0,90,0.00,,,0.00,weatherlink.com 1.10,2013-02-03 02:55:00,
2013-02-02 22:10:00,28.9,26.0,30.05,SSW,195,0.0,1.0,90,0.00,,,0.00,weatherlink.com 1.10,2013-02-03 03:10:00,
2013-02-02 22:25:00,28.9,26.0,30.04,SSW,195,0.0,0.0,90,0.00,,,0.00,weatherlink.com 1.10,2013-02-03 03:25:00,
2013-02-02 22:40:00,29.0,27.0,30.04,SSW,195,0.0,0.0,90,0.00,,,0.00,weatherlink.com 1.10,2013-02-03 03:40:00,
2013-02-02 22:55:00,29.2,27.0,30.04,SSW,195,0.0,0.0,90,0.00,,,0.00,weatherlink.com 1.10,2013-02-03 03:55:00,
2013-02-02 23:10:00,29.9,27.0,30.04,South,188,0.0,2.0,90,0.00,,,0.00,weatherlink.com 1.10,2013-02-03 04:10:00,
2013-02-02 23:25:00,30.3,28.0,30.03,South,188,1.0,1.0,89,0.00,,,0.00,weatherlink.com 1.10,2013-02-03 04:25:00,
2013-02-02 23:40:00,30.2,27.0,30.02,South,188,0.0,0.0,88,0.00,,,0.00,weatherlink.com 1.10,2013-02-03 04:40:00,
2013-02-02 23:55:00,29.3,27.0,30.02,South,188,0.0,0.0,89,0.00,,,0.00,weatherlink.com 1.10,2013-02-03 04:55:00,